Time;durP1;ratioP1;P1;durP2;ratioP2;P2;SDS_P1;SDS_P2;PMS_P1;PMS_P2;Temp;Humidity;BMP_temperature;BMP_pressure;BME280_temperature;BME280_humidity;BME280_pressure;Samples;Min_cycle;Max_cycle;Signal;HPM_P1;HPM_P2
2023/05/31 00:01:24;;;;;;;0.50;0.50;;;10.30;99.90;;;;;;5113522;28;20036;-70
2023/05/31 00:03:50;;;;;;;0.57;0.57;;;10.30;99.90;;;;;;5116410;28;20058;-69
2023/05/31 00:06:15;;;;;;;0.50;0.50;;;10.20;99.90;;;;;;5117478;28;20059;-68
2023/05/31 00:08:41;;;;;;;0.47;0.47;;;10.20;99.90;;;;;;5117435;28;20543;-69
2023/05/31 00:11:07;;;;;;;0.50;0.50;;;10.20;99.90;;;;;;5117660;28;20043;-69
2023/05/31 00:13:33;;;;;;;0.50;0.50;;;10.20;99.90;;;;;;5117429;28;20070;-69
2023/05/31 00:15:59;;;;;;;0.50;0.50;;;10.20;99.90;;;;;;5117286;28;20451;-69
2023/05/31 00:18:24;;;;;;;0.50;0.50;;;10.80;99.90;;;;;;5117196;28;20035;-69
2023/05/31 00:20:50;;;;;;;0.50;0.50;;;10.10;99.90;;;;;;5117108;28;20039;-70
2023/05/31 00:23:16;;;;;;;0.50;0.50;;;10.10;99.90;;;;;;5117384;28;20185;-69
2023/05/31 00:25:41;;;;;;;0.50;0.50;;;10.10;99.90;;;;;;5117082;28;20395;-69
2023/05/31 00:28:07;;;;;;;0.50;0.50;;;10.10;99.90;;;;;;5116961;28;20047;-69
2023/05/31 00:30:33;;;;;;;0.50;0.50;;;10.30;99.90;;;;;;5117039;28;20039;-70
2023/05/31 00:32:58;;;;;;;0.50;0.50;;;10.10;99.90;;;;;;5116660;28;20100;-70
2023/05/31 00:35:24;;;;;;;0.50;0.50;;;10.10;99.90;;;;;;5116949;28;20401;-69
2023/05/31 00:37:49;;;;;;;0.75;0.75;;;10.30;99.90;;;;;;5116870;28;20078;-69
2023/05/31 00:40:15;;;;;;;0.57;0.57;;;10.00;99.90;;;;;;5116788;28;20356;-69
2023/05/31 00:42:41;;;;;;;0.60;0.60;;;10.00;99.90;;;;;;5116858;28;20106;-69
2023/05/31 00:45:07;;;;;;;0.60;0.60;;;10.30;99.90;;;;;;5116706;28;20345;-70
2023/05/31 00:47:33;;;;;;;0.60;0.60;;;10.00;99.90;;;;;;5116671;28;20122;-70
2023/05/31 00:49:59;;;;;;;0.60;0.60;;;10.10;99.90;;;;;;5116632;27;20040;-69
2023/05/31 00:52:27;;;;;;;0.55;0.55;;;10.10;99.90;;;;;;5117134;28;20035;-69
2023/05/31 00:54:53;;;;;;;0.50;0.50;;;9.90;99.90;;;;;;5116531;28;20039;-70
2023/05/31 00:57:18;;;;;;;0.60;0.60;;;9.90;99.90;;;;;;5116536;28;20356;-69
2023/05/31 00:59:44;;;;;;;0.50;0.50;;;9.80;99.90;;;;;;5116439;28;20039;-70
2023/05/31 01:02:14;;;;;;;0.50;0.50;;;9.80;99.90;;;;;;5116063;28;20107;-69
2023/05/31 01:04:39;;;;;;;0.55;0.55;;;9.80;99.90;;;;;;5115684;28;20481;-70
2023/05/31 01:07:06;;;;;;;0.50;0.50;;;9.80;99.90;;;;;;5116318;28;20130;-70
2023/05/31 01:09:34;;;;;;;0.55;0.55;;;9.70;99.90;;;;;;5116279;28;20050;-69
2023/05/31 01:12:06;;;;;;;0.50;0.50;;;9.70;99.90;;;;;;5116193;28;20463;-69
2023/05/31 01:14:52;;;;;;;0.50;0.50;;;9.70;99.90;;;;;;5115705;28;20047;-70
2023/05/31 01:17:22;;;;;;;0.50;0.50;;;9.70;99.90;;;;;;5116144;28;20128;-70
2023/05/31 01:19:56;;;;;;;0.50;0.50;;;9.70;99.90;;;;;;5116071;28;20051;-70
2023/05/31 01:22:28;;;;;;;0.60;0.60;;;9.80;99.90;;;;;;5115937;28;20104;-69
2023/05/31 01:25:06;;;;;;;0.50;0.50;;;9.70;99.90;;;;;;5116004;28;20046;-69
2023/05/31 01:27:32;;;;;;;0.50;0.50;;;9.70;99.90;;;;;;5114995;28;20130;-69
2023/05/31 01:30:00;;;;;;;0.60;0.60;;;9.70;99.90;;;;;;5115873;28;20039;-69
2023/05/31 01:32:27;;;;;;;0.60;0.60;;;9.70;99.90;;;;;;5115550;28;20459;-69
2023/05/31 01:34:53;;;;;;;0.50;0.50;;;9.70;99.90;;;;;;5115739;28;20119;-70
2023/05/31 01:37:18;;;;;;;0.50;0.50;;;9.70;99.90;;;;;;5115736;28;20128;-70
2023/05/31 01:39:46;;;;;;;0.88;0.85;;;9.60;99.90;;;;;;5115633;28;20035;-69
2023/05/31 01:42:12;;;;;;;0.80;0.80;;;9.60;99.90;;;;;;5115662;28;20477;-69
2023/05/31 01:44:40;;;;;;;0.50;0.50;;;10.20;99.90;;;;;;5115499;28;20040;-70
2023/05/31 01:47:07;;;;;;;0.50;0.50;;;10.30;99.90;;;;;;5115568;28;20093;-69
2023/05/31 01:49:35;;;;;;;0.50;0.50;;;9.60;99.90;;;;;;5115436;28;20040;-69
2023/05/31 01:52:02;;;;;;;0.50;0.50;;;9.80;99.90;;;;;;5115543;28;20075;-69
2023/05/31 01:54:27;;;;;;;0.50;0.50;;;9.50;99.90;;;;;;5115264;28;20122;-70
2023/05/31 01:56:53;;;;;;;0.50;0.50;;;9.60;99.90;;;;;;5115790;28;20162;-69
2023/05/31 01:59:20;;;;;;;0.60;0.60;;;10.10;99.90;;;;;;5115308;28;20046;-69
2023/05/31 02:01:47;;;;;;;0.50;0.50;;;9.50;99.90;;;;;;5115543;28;20441;-69
2023/05/31 02:04:16;;;;;;;0.60;0.60;;;9.50;99.90;;;;;;5115298;28;20089;-69
2023/05/31 02:06:42;;;;;;;0.60;0.60;;;9.50;99.90;;;;;;5115049;28;20044;-69
2023/05/31 02:09:08;;;;;;;0.90;0.90;;;9.80;99.90;;;;;;5114070;28;20360;-69
2023/05/31 02:11:33;;;;;;;0.50;0.50;;;9.40;99.90;;;;;;5115026;28;20167;-70
2023/05/31 02:13:59;;;;;;;0.50;0.50;;;9.40;99.90;;;;;;5114964;28;20047;-69
2023/05/31 02:16:25;;;;;;;0.60;0.60;;;9.40;99.90;;;;;;5115391;28;20043;-70
2023/05/31 02:18:51;;;;;;;0.57;0.57;;;9.40;99.90;;;;;;5114931;28;20028;-70
2023/05/31 02:21:16;;;;;;;1.23;1.17;;;9.40;99.90;;;;;;5114917;28;20038;-69
2023/05/31 02:23:42;;;;;;;0.50;0.50;;;9.40;99.90;;;;;;5114669;28;20039;-69
2023/05/31 02:26:08;;;;;;;0.52;0.52;;;9.40;99.90;;;;;;5113933;28;20044;-69
2023/05/31 02:28:34;;;;;;;0.60;0.60;;;9.40;99.90;;;;;;5114783;28;20031;-70
2023/05/31 02:31:00;;;;;;;0.60;0.60;;;9.30;99.90;;;;;;5114915;28;20046;-70
2023/05/31 02:33:27;;;;;;;0.60;0.60;;;9.30;99.90;;;;;;5114645;28;20039;-69
2023/05/31 02:35:52;;;;;;;0.60;0.60;;;9.30;99.90;;;;;;5114793;28;20044;-70
2023/05/31 02:38:20;;;;;;;0.50;0.50;;;9.30;99.90;;;;;;5114443;28;20142;-69
2023/05/31 02:40:46;;;;;;;0.60;0.60;;;9.30;99.90;;;;;;5114534;28;20050;-70
2023/05/31 02:43:12;;;;;;;0.60;0.60;;;9.30;99.90;;;;;;5114511;28;20039;-70
2023/05/31 02:45:37;;;;;;;0.60;0.60;;;9.20;99.90;;;;;;5114526;28;20035;-70
2023/05/31 02:48:05;;;;;;;0.52;0.52;;;9.20;99.90;;;;;;5114626;28;20038;-70
2023/05/31 02:50:31;;;;;;;0.60;0.60;;;9.20;99.90;;;;;;5114539;27;20411;-69
2023/05/31 02:52:56;;;;;;;0.70;0.70;;;9.20;99.90;;;;;;5114355;28;20031;-69
2023/05/31 02:55:22;;;;;;;0.60;0.60;;;9.10;99.90;;;;;;5114371;28;20149;-70
2023/05/31 02:57:48;;;;;;;0.95;0.85;;;9.10;99.90;;;;;;5114133;28;20036;-69
2023/05/31 03:00:14;;;;;;;0.50;0.50;;;9.20;99.90;;;;;;5114295;28;20047;-69
2023/05/31 03:02:40;;;;;;;0.57;0.57;;;9.10;99.90;;;;;;5114199;28;20140;-69
2023/05/31 03:05:06;;;;;;;0.80;0.80;;;9.10;99.90;;;;;;5113790;28;20472;-69
2023/05/31 03:07:36;;;;;;;0.60;0.60;;;9.10;99.90;;;;;;5114124;28;20460;-69
2023/05/31 03:10:04;;;;;;;0.50;0.50;;;9.50;99.90;;;;;;5114083;28;20439;-69
2023/05/31 03:12:33;;;;;;;0.50;0.50;;;9.10;99.90;;;;;;5113994;28;20416;-70
2023/05/31 03:14:58;;;;;;;0.50;0.50;;;9.00;99.90;;;;;;5113974;28;20451;-69
2023/05/31 03:17:24;;;;;;;0.80;0.70;;;9.00;99.90;;;;;;5113997;28;20108;-69
2023/05/31 03:19:50;;;;;;;0.50;0.50;;;9.00;99.90;;;;;;5114093;28;20413;-69
2023/05/31 03:22:15;;;;;;;0.60;0.60;;;9.00;99.90;;;;;;5113850;28;20065;-69
2023/05/31 03:24:41;;;;;;;0.50;0.50;;;9.00;99.90;;;;;;5113796;28;20075;-69
2023/05/31 03:27:07;;;;;;;0.60;0.60;;;9.00;99.90;;;;;;5114288;28;20043;-69
2023/05/31 03:29:36;;;;;;;0.60;0.60;;;9.50;99.90;;;;;;5114015;28;20039;-69
2023/05/31 03:32:02;;;;;;;0.60;0.60;;;9.00;99.90;;;;;;5113906;28;20080;-69
2023/05/31 03:34:28;;;;;;;0.60;0.60;;;9.10;99.90;;;;;;5113959;28;20035;-69
2023/05/31 03:36:54;;;;;;;0.50;0.50;;;9.10;99.90;;;;;;5115850;28;20282;-68
2023/05/31 03:39:20;;;;;;;0.50;0.50;;;9.10;99.90;;;;;;5118751;28;20392;-69
2023/05/31 03:41:46;;;;;;;0.70;0.70;;;9.20;99.90;;;;;;5118071;27;20042;-69
2023/05/31 03:44:11;;;;;;;0.50;0.50;;;9.80;99.90;;;;;;5118156;28;20032;-69
2023/05/31 03:46:37;;;;;;;0.63;0.63;;;9.60;99.90;;;;;;5117921;28;20492;-69
2023/05/31 03:49:03;;;;;;;0.55;0.55;;;9.20;99.90;;;;;;5117816;28;20035;-69
2023/05/31 03:51:29;;;;;;;0.82;0.82;;;9.20;99.90;;;;;;5117852;28;20036;-68
2023/05/31 03:53:55;;;;;;;0.60;0.60;;;9.20;99.90;;;;;;5117946;28;20560;-68
2023/05/31 03:56:20;;;;;;;1.20;0.88;;;9.30;99.90;;;;;;5117729;28;20075;-70
2023/05/31 03:58:46;;;;;;;1.45;1.35;;;9.30;99.90;;;;;;5117712;28;20367;-69
2023/05/31 04:01:12;;;;;;;0.50;0.50;;;9.30;99.90;;;;;;5117596;28;20040;-69
2023/05/31 04:03:38;;;;;;;0.50;0.50;;;9.30;99.90;;;;;;5117218;28;20055;-69
2023/05/31 04:06:03;;;;;;;0.55;0.55;;;9.40;99.90;;;;;;5117553;28;20042;-69
2023/05/31 04:08:29;;;;;;;0.50;0.50;;;9.40;99.90;;;;;;5117405;28;20058;-69
2023/05/31 04:10:55;;;;;;;0.50;0.50;;;9.40;99.90;;;;;;5117828;28;20040;-69
2023/05/31 04:13:20;;;;;;;1.27;1.17;;;9.40;99.90;;;;;;5117394;28;20084;-69
2023/05/31 04:15:46;;;;;;;0.50;0.50;;;10.00;99.90;;;;;;5117331;28;20069;-69
2023/05/31 04:18:11;;;;;;;0.50;0.50;;;9.50;99.90;;;;;;5117438;28;20038;-69
2023/05/31 04:20:37;;;;;;;0.50;0.50;;;9.60;99.90;;;;;;5117266;28;20067;-68
2023/05/31 04:23:02;;;;;;;0.60;0.60;;;9.60;99.90;;;;;;5117197;28;20067;-68
2023/05/31 04:25:28;;;;;;;0.70;0.70;;;9.60;99.90;;;;;;5117496;28;20031;-68
2023/05/31 04:27:54;;;;;;;0.50;0.50;;;10.00;99.90;;;;;;5117152;28;20452;-69
2023/05/31 04:30:20;;;;;;;0.50;0.50;;;9.70;99.90;;;;;;5117058;28;20482;-69
2023/05/31 04:32:50;;;;;;;0.50;0.50;;;9.70;99.90;;;;;;5117163;28;20282;-68
2023/05/31 04:35:15;;;;;;;1.35;1.25;;;9.80;99.90;;;;;;5117044;28;20105;-69
2023/05/31 04:37:41;;;;;;;0.50;0.50;;;9.80;99.90;;;;;;5116872;28;20459;-68
2023/05/31 04:40:09;;;;;;;0.82;0.82;;;9.90;99.90;;;;;;5116913;28;20042;-69
2023/05/31 04:42:36;;;;;;;0.50;0.50;;;9.90;99.90;;;;;;5116858;28;20061;-69
2023/05/31 04:45:07;;;;;;;0.50;0.50;;;10.00;99.90;;;;;;5116467;28;20464;-68
2023/05/31 04:47:35;;;;;;;0.55;0.55;;;10.20;99.90;;;;;;5116161;28;20092;-69
2023/05/31 04:50:00;;;;;;;0.98;0.63;;;10.20;99.90;;;;;;5116365;28;20391;-68
2023/05/31 04:52:32;;;;;;;0.50;0.50;;;10.50;99.90;;;;;;5115788;28;20039;-69
2023/05/31 04:55:00;;;;;;;0.70;0.70;;;10.20;99.90;;;;;;5116601;28;20067;-69
2023/05/31 04:57:28;;;;;;;0.50;0.50;;;10.30;99.90;;;;;;5116561;28;20141;-69
2023/05/31 04:59:56;;;;;;;0.50;0.50;;;10.40;99.90;;;;;;5116484;28;20040;-68
2023/05/31 05:02:21;;;;;;;2.05;1.75;;;10.40;99.90;;;;;;5116395;28;20048;-70
2023/05/31 05:04:51;;;;;;;0.50;0.50;;;10.40;99.90;;;;;;5116217;28;20096;-69
2023/05/31 05:07:16;;;;;;;0.50;0.50;;;10.50;99.90;;;;;;5116282;28;20078;-69
2023/05/31 05:09:43;;;;;;;0.50;0.50;;;10.50;99.90;;;;;;5116268;28;20075;-70
2023/05/31 05:12:09;;;;;;;0.40;0.40;;;10.60;99.90;;;;;;5116434;28;20048;-69
2023/05/31 05:14:35;;;;;;;0.50;0.50;;;10.60;99.90;;;;;;5116258;28;20625;-69
2023/05/31 05:17:01;;;;;;;0.67;0.60;;;10.70;99.90;;;;;;5116201;28;20035;-69
2023/05/31 05:19:27;;;;;;;0.50;0.50;;;10.70;99.90;;;;;;5116071;28;20413;-69
2023/05/31 05:21:52;;;;;;;0.50;0.50;;;10.90;99.90;;;;;;5116044;28;20044;-69
2023/05/31 05:24:18;;;;;;;0.50;0.50;;;11.10;99.90;;;;;;5116296;28;20085;-70
2023/05/31 05:26:44;;;;;;;0.88;0.88;;;11.30;99.90;;;;;;5115795;28;20043;-69
2023/05/31 05:29:09;;;;;;;0.68;0.60;;;11.60;99.90;;;;;;5115901;28;20038;-69
2023/05/31 05:31:35;;;;;;;0.50;0.50;;;11.80;99.90;;;;;;5115819;28;20032;-69
2023/05/31 05:34:01;;;;;;;0.70;0.70;;;12.10;99.90;;;;;;5115733;28;20046;-69
2023/05/31 05:36:26;;;;;;;0.50;0.50;;;12.30;99.90;;;;;;5115765;28;20035;-69
2023/05/31 05:38:52;;;;;;;0.50;0.50;;;12.50;99.90;;;;;;5115732;28;20071;-69
2023/05/31 05:41:18;;;;;;;0.50;0.50;;;12.70;99.90;;;;;;5115604;28;20050;-69
2023/05/31 05:43:43;;;;;;;2.08;1.08;;;13.00;99.90;;;;;;5115561;28;20472;-69
2023/05/31 05:46:09;;;;;;;0.50;0.50;;;13.00;99.90;;;;;;5115607;28;20043;-69
2023/05/31 05:48:34;;;;;;;0.50;0.50;;;13.30;99.90;;;;;;5115418;28;20096;-69
2023/05/31 05:51:00;;;;;;;0.52;0.52;;;13.60;99.90;;;;;;5115512;28;20036;-70
2023/05/31 05:53:26;;;;;;;0.87;0.87;;;13.80;99.90;;;;;;5115321;28;20043;-69
2023/05/31 05:55:52;;;;;;;0.40;0.40;;;14.10;99.90;;;;;;5115687;28;20036;-70
2023/05/31 05:58:18;;;;;;;0.50;0.50;;;14.10;99.90;;;;;;5115367;28;20112;-69
2023/05/31 06:00:45;;;;;;;0.50;0.50;;;14.20;99.90;;;;;;5115171;28;20039;-69
2023/05/31 06:03:15;;;;;;;0.40;0.40;;;14.30;99.90;;;;;;5115181;28;20047;-69
2023/05/31 06:05:44;;;;;;;0.40;0.40;;;14.40;99.90;;;;;;5115052;28;20053;-69
2023/05/31 06:08:10;;;;;;;0.50;0.50;;;14.50;99.90;;;;;;5115120;28;20035;-70
2023/05/31 06:10:36;;;;;;;0.60;0.60;;;14.50;99.90;;;;;;5115091;28;20035;-69
2023/05/31 06:13:02;;;;;;;3.93;2.00;;;14.70;99.90;;;;;;5115058;28;20032;-69
2023/05/31 06:15:28;;;;;;;0.93;0.93;;;14.90;99.90;;;;;;5114898;28;20043;-69
2023/05/31 06:17:54;;;;;;;0.40;0.40;;;14.80;99.90;;;;;;5114696;28;20337;-70
2023/05/31 06:20:20;;;;;;;0.40;0.40;;;15.00;99.90;;;;;;5114918;28;20084;-70
2023/05/31 06:22:47;;;;;;;0.65;0.65;;;15.20;99.90;;;;;;5114646;28;20392;-69
2023/05/31 06:25:13;;;;;;;;;;;15.30;99.90;;;;;;5115208;28;20161;-69
2023/05/31 06:27:38;;;;;;;0.40;0.40;;;15.40;99.90;;;;;;5114582;28;20397;-69
2023/05/31 06:30:05;;;;;;;0.40;0.40;;;15.40;99.90;;;;;;5114715;28;20039;-70
2023/05/31 06:32:30;;;;;;;0.40;0.40;;;15.30;99.90;;;;;;5114505;28;20105;-70
2023/05/31 06:34:56;;;;;;;0.47;0.47;;;15.40;99.90;;;;;;5114658;28;20071;-70
2023/05/31 06:37:22;;;;;;;0.50;0.50;;;15.40;99.90;;;;;;5114593;28;20047;-69
2023/05/31 06:39:48;;;;;;;0.93;0.85;;;15.40;99.90;;;;;;5114555;28;20043;-69
2023/05/31 06:42:14;;;;;;;0.77;0.77;;;15.50;99.90;;;;;;5114741;28;20038;-70
2023/05/31 06:44:43;;;;;;;0.40;0.40;;;15.60;99.90;;;;;;5114544;28;20454;-70
2023/05/31 06:47:09;;;;;;;0.30;0.30;;;15.60;99.90;;;;;;5114384;28;20089;-69
2023/05/31 06:49:35;;;;;;;0.75;0.75;;;15.70;99.90;;;;;;5114414;28;20049;-70
2023/05/31 06:52:01;;;;;;;0.30;0.30;;;15.80;99.90;;;;;;5114793;28;20083;-70
2023/05/31 06:54:27;;;;;;;0.32;0.32;;;15.90;99.90;;;;;;5114310;28;20463;-70
2023/05/31 06:56:53;;;;;;;0.40;0.40;;;16.10;99.90;;;;;;5114301;28;20474;-69
2023/05/31 06:59:19;;;;;;;0.40;0.40;;;16.20;99.90;;;;;;5114338;28;20274;-70
2023/05/31 07:01:44;;;;;;;0.50;0.50;;;16.40;99.90;;;;;;5114198;28;20360;-70
2023/05/31 07:04:10;;;;;;;0.67;0.67;;;16.60;99.90;;;;;;5113656;28;20574;-70
2023/05/31 07:06:37;;;;;;;0.50;0.50;;;16.60;99.90;;;;;;5114147;28;20069;-69
2023/05/31 07:09:04;;;;;;;0.50;0.50;;;16.70;99.90;;;;;;5114143;28;20083;-70
2023/05/31 07:11:29;;;;;;;0.40;0.40;;;16.80;99.90;;;;;;5113923;28;20044;-69
2023/05/31 07:13:59;;;;;;;0.38;0.38;;;17.00;99.90;;;;;;5113989;28;20055;-69
2023/05/31 07:16:25;;;;;;;0.50;0.50;;;17.00;99.90;;;;;;5114002;28;20051;-70
2023/05/31 07:18:50;;;;;;;0.40;0.40;;;17.10;99.90;;;;;;5113992;28;20039;-70
2023/05/31 07:21:16;;;;;;;0.50;0.50;;;17.10;99.90;;;;;;5114307;28;20042;-70
2023/05/31 07:23:41;;;;;;;0.57;0.43;;;17.20;99.90;;;;;;5113863;28;20059;-69
2023/05/31 07:26:07;;;;;;;0.40;0.40;;;17.20;99.90;;;;;;5113910;28;20472;-70
2023/05/31 07:28:33;;;;;;;0.50;0.50;;;17.30;99.90;;;;;;5113783;28;20089;-70
2023/05/31 07:30:58;;;;;;;0.50;0.50;;;17.40;99.90;;;;;;5113826;28;20036;-71
2023/05/31 07:33:24;;;;;;;0.40;0.40;;;17.50;99.90;;;;;;5114342;28;20031;-70
2023/05/31 07:35:50;;;;;;;1.33;1.23;;;17.60;99.90;;;;;;5113839;28;20096;-70
2023/05/31 07:38:15;;;;;;;0.43;0.43;;;17.70;99.90;;;;;;5113848;28;20044;-69
2023/05/31 07:40:41;;;;;;;0.30;0.30;;;17.70;99.90;;;;;;5112983;28;20096;-70
2023/05/31 07:43:07;;;;;;;0.47;0.40;;;17.80;99.90;;;;;;5113758;28;20032;-71
2023/05/31 07:45:33;;;;;;;0.65;0.65;;;17.90;99.90;;;;;;5112450;28;20046;-69
2023/05/31 07:47:59;;;;;;;0.40;0.40;;;18.00;99.90;;;;;;5114104;28;20051;-70
2023/05/31 07:50:25;;;;;;;0.30;0.30;;;18.10;99.90;;;;;;5113774;28;20571;-69
2023/05/31 07:52:51;;;;;;;1.02;0.93;;;18.10;99.90;;;;;;5113673;28;20471;-70
2023/05/31 07:55:17;;;;;;;0.40;0.40;;;18.20;99.90;;;;;;5113715;28;20117;-69
2023/05/31 07:57:43;;;;;;;0.60;0.60;;;18.30;99.90;;;;;;5113638;28;20044;-71
2023/05/31 08:00:13;;;;;;;0.30;0.30;;;18.50;99.90;;;;;;5113391;28;20092;-69
2023/05/31 08:02:40;;;;;;;0.30;0.30;;;18.50;99.90;;;;;;5113460;28;20052;-69
2023/05/31 08:05:07;;;;;;;0.40;0.40;;;18.50;99.90;;;;;;5113358;28;20039;-69
2023/05/31 08:07:33;;;;;;;0.77;0.77;;;18.50;99.90;;;;;;5113630;28;20046;-70
2023/05/31 08:09:59;;;;;;;0.30;0.30;;;18.60;99.90;;;;;;5113682;28;20471;-70
2023/05/31 08:12:24;;;;;;;0.50;0.50;;;18.70;99.90;;;;;;5113693;28;20039;-70
2023/05/31 08:14:50;;;;;;;0.30;0.30;;;18.90;99.90;;;;;;5113481;28;20443;-69
2023/05/31 08:17:15;;;;;;;0.80;0.80;;;19.10;99.90;;;;;;5113494;28;20031;-70
2023/05/31 08:19:41;;;;;;;0.30;0.30;;;19.20;99.90;;;;;;5113703;28;20446;-69
2023/05/31 08:22:07;;;;;;;0.30;0.30;;;19.30;99.90;;;;;;5113714;28;20122;-70
2023/05/31 08:24:33;;;;;;;0.73;0.73;;;19.50;99.90;;;;;;5116680;28;20086;-70
2023/05/31 08:26:59;;;;;;;0.37;0.37;;;19.70;99.90;;;;;;5117340;28;20082;-70
2023/05/31 08:29:25;;;;;;;0.30;0.30;;;19.80;99.90;;;;;;5117116;28;20032;-70
2023/05/31 08:31:51;;;;;;;0.83;0.73;;;19.90;99.90;;;;;;5117528;28;20081;-69
2023/05/31 08:34:18;;;;;;;0.40;0.40;;;20.00;99.90;;;;;;5117052;28;20269;-70
2023/05/31 08:36:44;;;;;;;;;;;20.00;99.90;;;;;;5117306;28;20047;-70
2023/05/31 08:39:10;;;;;;;1.13;1.10;;;20.00;99.90;;;;;;5116944;28;19920;-70
2023/05/31 08:41:45;;;;;;;0.23;0.23;;;20.10;99.90;;;;;;5116880;28;20036;-69
2023/05/31 08:44:14;;;;;;;0.30;0.30;;;20.20;99.90;;;;;;5116674;28;20039;-70
2023/05/31 08:46:41;;;;;;;0.30;0.30;;;20.30;99.90;;;;;;5116730;28;20040;-70
2023/05/31 08:49:12;;;;;;;0.30;0.30;;;20.40;99.90;;;;;;5116752;28;20043;-71
2023/05/31 08:51:40;;;;;;;0.30;0.30;;;20.50;99.90;;;;;;5116673;28;20046;-70
2023/05/31 08:54:06;;;;;;;0.22;0.22;;;20.50;99.90;;;;;;5116576;27;20035;-70
2023/05/31 08:56:33;;;;;;;0.30;0.30;;;20.60;99.90;;;;;;5116627;28;20437;-70
2023/05/31 08:58:58;;;;;;;0.30;0.30;;;20.60;99.90;;;;;;5116468;28;20115;-70
2023/05/31 09:01:27;;;;;;;0.67;0.50;;;20.70;99.90;;;;;;5116389;28;20535;-70
2023/05/31 09:03:53;;;;;;;0.30;0.30;;;20.70;99.90;;;;;;5116621;28;20047;-71
2023/05/31 09:06:19;;;;;;;1.05;0.50;;;20.70;99.90;;;;;;5116546;28;20126;-71
2023/05/31 09:08:45;;;;;;;0.30;0.30;;;20.80;99.90;;;;;;5116330;28;20082;-70
2023/05/31 09:11:12;;;;;;;0.60;0.50;;;20.90;99.90;;;;;;5116260;28;20044;-70
2023/05/31 09:13:37;;;;;;;;;;;21.00;99.90;;;;;;5116292;28;20465;-70
2023/05/31 09:16:03;;;;;;;0.30;0.30;;;21.00;99.90;;;;;;5116549;28;19923;-69
2023/05/31 09:18:39;;;;;;;0.30;0.30;;;21.00;99.90;;;;;;5116117;28;20142;-70
2023/05/31 09:21:10;;;;;;;0.30;0.30;;;21.10;99.90;;;;;;5116394;28;20122;-71
2023/05/31 09:23:36;;;;;;;0.30;0.30;;;21.30;99.90;;;;;;5116012;28;20047;-70
2023/05/31 09:26:05;;;;;;;0.43;0.43;;;21.50;99.90;;;;;;5115976;28;20043;-70
2023/05/31 09:28:30;;;;;;;0.30;0.30;;;21.60;99.90;;;;;;5115720;28;20031;-70
2023/05/31 09:31:04;;;;;;;0.30;0.30;;;21.70;99.90;;;;;;5115888;28;20222;-71
2023/05/31 09:33:44;;;;;;;0.30;0.30;;;21.70;99.90;;;;;;5115718;28;20043;-70
2023/05/31 09:36:12;;;;;;;0.40;0.40;;;21.70;99.90;;;;;;5115712;28;20051;-70
2023/05/31 09:38:38;;;;;;;0.30;0.30;;;21.60;99.90;;;;;;5115606;28;20501;-70
2023/05/31 09:41:15;;;;;;;0.40;0.40;;;21.60;99.90;;;;;;5115912;28;20043;-71
2023/05/31 09:43:42;;;;;;;0.30;0.30;;;21.70;99.90;;;;;;5115824;28;20041;-70
2023/05/31 09:46:12;;;;;;;0.32;0.32;;;21.70;99.90;;;;;;5115536;28;20055;-70
2023/05/31 09:48:37;;;;;;;0.30;0.30;;;21.80;99.90;;;;;;5115409;28;20040;-70
2023/05/31 09:51:07;;;;;;;0.47;0.47;;;22.00;99.90;;;;;;5115401;28;20043;-69
2023/05/31 09:53:40;;;;;;;0.22;0.22;;;22.00;99.90;;;;;;5115459;28;20050;-69
2023/05/31 09:56:19;;;;;;;0.40;0.40;;;22.20;99.90;;;;;;5115818;28;20039;-70
2023/05/31 09:58:45;;;;;;;5.88;4.20;;;22.20;99.90;;;;;;5115559;28;20039;-70
2023/05/31 10:01:10;;;;;;;0.30;0.30;;;22.30;99.90;;;;;;5115248;28;20038;-70
2023/05/31 10:03:38;;;;;;;0.67;0.67;;;22.10;99.90;;;;;;5115593;28;20476;-71
2023/05/31 10:06:04;;;;;;;0.30;0.30;;;22.20;99.90;;;;;;5115595;28;20096;-69
2023/05/31 10:08:32;;;;;;;0.30;0.30;;;22.20;99.90;;;;;;5115156;28;20459;-70
2023/05/31 10:11:00;;;;;;;0.40;0.40;;;22.10;99.90;;;;;;5115066;28;20035;-71
2023/05/31 10:13:30;;;;;;;0.90;0.47;;;22.20;99.90;;;;;;5114998;28;20043;-70
2023/05/31 10:15:59;;;;;;;0.73;0.73;;;22.50;99.90;;;;;;5115034;27;20144;-71
2023/05/31 10:18:30;;;;;;;0.60;0.60;;;22.60;99.90;;;;;;5114971;28;20194;-70
2023/05/31 10:21:03;;;;;;;0.40;0.40;;;22.70;99.90;;;;;;5115216;28;20071;-70
2023/05/31 10:23:30;;;;;;;0.30;0.30;;;22.80;99.90;;;;;;5114827;28;20075;-70
2023/05/31 10:26:06;;;;;;;0.47;0.47;;;22.90;99.90;;;;;;5114650;28;20031;-70
2023/05/31 10:28:37;;;;;;;0.35;0.35;;;23.00;99.90;;;;;;5113559;28;20067;-69
2023/05/31 10:31:03;;;;;;;0.30;0.30;;;22.90;99.90;;;;;;5114711;28;20084;-70
2023/05/31 10:33:31;;;;;;;0.30;0.30;;;22.90;99.90;;;;;;5114851;28;20091;-71
2023/05/31 10:36:00;;;;;;;0.20;0.20;;;22.90;99.90;;;;;;5114588;28;20046;-70
2023/05/31 10:38:35;;;;;;;0.40;0.40;;;23.10;99.90;;;;;;5114750;28;20383;-71
2023/05/31 10:41:13;;;;;;;0.30;0.30;;;23.10;99.90;;;;;;5114319;28;20073;-70
2023/05/31 10:43:57;;;;;;;0.45;0.45;;;23.20;99.90;;;;;;5114902;28;20047;-71
2023/05/31 10:46:28;;;;;;;0.50;0.50;;;23.20;99.90;;;;;;5113752;28;20047;-70
2023/05/31 10:48:56;;;;;;;0.30;0.30;;;23.40;99.90;;;;;;5113625;28;20035;-71
2023/05/31 10:51:42;;;;;;;2.65;1.65;;;23.50;99.90;;;;;;5114288;28;20499;-70
2023/05/31 10:54:08;;;;;;;0.40;0.40;;;23.40;99.90;;;;;;5114313;28;20039;-70
2023/05/31 10:56:38;;;;;;;0.30;0.30;;;23.40;99.90;;;;;;5114322;28;20121;-70
2023/05/31 10:59:08;;;;;;;0.30;0.30;;;23.40;99.90;;;;;;5113969;28;20471;-70
2023/05/31 11:01:35;;;;;;;0.30;0.30;;;23.50;99.90;;;;;;5114219;28;20039;-71
2023/05/31 11:04:01;;;;;;;0.30;0.30;;;23.60;99.90;;;;;;5113690;28;20176;-71
2023/05/31 11:06:38;;;;;;;0.30;0.30;;;23.60;99.90;;;;;;5114088;28;20450;-70
2023/05/31 11:09:12;;;;;;;0.30;0.30;;;23.60;99.90;;;;;;5113916;28;20074;-70
2023/05/31 11:11:41;;;;;;;0.40;0.40;;;23.70;99.90;;;;;;5114115;28;20038;-70
2023/05/31 11:14:09;;;;;;;0.55;0.55;;;23.80;99.90;;;;;;5114102;28;20051;-70
2023/05/31 11:16:44;;;;;;;0.43;0.43;;;23.90;99.90;;;;;;5114077;28;20035;-70
2023/05/31 11:19:27;;;;;;;0.30;0.30;;;23.70;99.90;;;;;;5114457;28;20046;-70
2023/05/31 11:21:55;;;;;;;0.30;0.30;;;23.70;99.90;;;;;;5113963;28;20041;-70
2023/05/31 11:24:38;;;;;;;0.40;0.38;;;23.80;99.90;;;;;;5113815;28;20127;-71
2023/05/31 11:27:06;;;;;;;1.40;1.30;;;23.90;99.90;;;;;;5114006;28;20097;-69
2023/05/31 11:29:53;;;;;;;0.20;0.20;;;24.00;99.90;;;;;;5113659;28;20451;-71
2023/05/31 11:32:18;;;;;;;0.30;0.30;;;23.90;99.90;;;;;;5113845;28;20134;-69
2023/05/31 11:34:53;;;;;;;0.27;0.27;;;23.80;99.90;;;;;;5113849;28;20048;-70
2023/05/31 11:37:38;;;;;;;0.80;0.80;;;23.60;99.90;;;;;;5114212;28;20044;-70
2023/05/31 11:40:06;;;;;;;0.30;0.30;;;23.60;99.90;;;;;;5114297;28;20043;-71
2023/05/31 11:42:32;;;;;;;0.70;0.70;;;23.80;99.90;;;;;;5113763;28;20043;-70
2023/05/31 11:45:10;;;;;;;0.43;0.40;;;23.80;99.90;;;;;;5113581;28;20027;-69
2023/05/31 11:47:42;;;;;;;0.30;0.30;;;23.90;99.90;;;;;;5113897;28;20035;-71
2023/05/31 11:50:13;;;;;;;0.52;0.52;;;24.00;99.90;;;;;;5113669;28;20040;-71
2023/05/31 11:52:39;;;;;;;0.30;0.30;;;23.90;99.90;;;;;;5114299;28;20043;-71
2023/05/31 11:55:06;;;;;;;0.45;0.45;;;23.90;99.90;;;;;;5113929;28;20089;-70
2023/05/31 11:57:41;;;;;;;3.50;0.93;;;23.70;99.90;;;;;;5114963;28;20119;-70
2023/05/31 12:00:11;;;;;;;0.40;0.40;;;23.80;99.90;;;;;;5117760;28;20073;-71
2023/05/31 12:02:40;;;;;;;0.30;0.30;;;23.70;99.90;;;;;;5117659;28;20093;-70
2023/05/31 12:05:10;;;;;;;0.30;0.30;;;23.70;99.90;;;;;;5117453;28;20036;-71
2023/05/31 12:07:36;;;;;;;0.20;0.20;;;23.70;99.90;;;;;;5117486;28;20042;-70
2023/05/31 12:10:05;;;;;;;0.23;0.23;;;23.80;99.90;;;;;;5116499;28;20036;-70
2023/05/31 12:12:30;;;;;;;0.60;0.60;;;23.80;99.90;;;;;;5117469;28;20055;-71
2023/05/31 12:14:56;;;;;;;0.70;0.70;;;23.90;99.90;;;;;;5117397;28;20036;-70
2023/05/31 12:17:22;;;;;;;0.30;0.30;;;23.60;99.90;;;;;;5117382;28;20114;-70
2023/05/31 12:19:48;;;;;;;0.30;0.30;;;23.70;99.90;;;;;;5117319;28;20071;-70
2023/05/31 12:22:14;;;;;;;0.50;0.50;;;23.70;99.90;;;;;;5117232;28;20473;-70
2023/05/31 12:24:53;;;;;;;0.38;0.30;;;23.80;99.90;;;;;;5117245;28;20047;-70
2023/05/31 12:27:21;;;;;;;0.50;0.50;;;23.80;99.90;;;;;;5117357;28;20383;-70
2023/05/31 12:29:47;;;;;;;0.30;0.30;;;23.70;99.90;;;;;;5117035;28;20083;-70
2023/05/31 12:32:12;;;;;;;0.70;0.70;;;23.80;99.90;;;;;;5116977;28;20491;-71
2023/05/31 12:34:38;;;;;;;0.30;0.30;;;23.90;99.90;;;;;;5117025;28;20582;-70
2023/05/31 12:37:06;;;;;;;0.30;0.30;;;23.80;99.90;;;;;;5116909;28;20042;-70
2023/05/31 12:39:33;;;;;;;0.30;0.30;;;23.80;99.90;;;;;;5116821;28;20179;-70
2023/05/31 12:42:00;;;;;;;0.50;0.50;;;23.80;99.90;;;;;;5117056;28;20039;-71
2023/05/31 12:44:27;;;;;;;0.70;0.70;;;23.70;99.90;;;;;;5116730;28;20368;-71
2023/05/31 12:47:04;;;;;;;3.33;0.70;;;23.70;99.90;;;;;;5116441;28;20039;-70
2023/05/31 12:49:32;;;;;;;0.30;0.30;;;23.80;99.90;;;;;;5116790;28;20048;-71
2023/05/31 12:52:05;;;;;;;0.80;0.80;;;23.70;99.90;;;;;;5116876;28;20348;-71